sensor_id;sensor_type;location;lat;lon;timestamp;temperature;humidity
17370;DHT22;8802;52.402;4.920;2023-04-03T00:01:40;9.20;94.30
17370;DHT22;8802;52.402;4.920;2023-04-03T00:04:07;9.20;94.30
17370;DHT22;8802;52.402;4.920;2023-04-03T00:06:34;9.20;94.10
17370;DHT22;8802;52.402;4.920;2023-04-03T00:09:01;9.20;94.20
17370;DHT22;8802;52.402;4.920;2023-04-03T00:11:30;9.20;94.30
17370;DHT22;8802;52.402;4.920;2023-04-03T00:13:57;9.10;94.30
17370;DHT22;8802;52.402;4.920;2023-04-03T00:16:23;9.10;94.10
17370;DHT22;8802;52.402;4.920;2023-04-03T00:18:50;9.10;94.00
17370;DHT22;8802;52.402;4.920;2023-04-03T00:21:17;9.10;93.90
17370;DHT22;8802;52.402;4.920;2023-04-03T00:23:44;9.00;93.90
17370;DHT22;8802;52.402;4.920;2023-04-03T00:26:11;9.10;93.70
17370;DHT22;8802;52.402;4.920;2023-04-03T00:28:39;9.00;93.80
17370;DHT22;8802;52.402;4.920;2023-04-03T00:31:06;9.00;93.90
17370;DHT22;8802;52.402;4.920;2023-04-03T00:33:33;9.00;93.90
17370;DHT22;8802;52.402;4.920;2023-04-03T00:36:05;9.00;93.80
17370;DHT22;8802;52.402;4.920;2023-04-03T00:38:33;8.90;94.30
17370;DHT22;8802;52.402;4.920;2023-04-03T00:41:00;8.90;93.90
17370;DHT22;8802;52.402;4.920;2023-04-03T00:43:27;8.90;94.10
17370;DHT22;8802;52.402;4.920;2023-04-03T00:45:56;8.90;94.10
17370;DHT22;8802;52.402;4.920;2023-04-03T00:48:26;8.90;94.10
17370;DHT22;8802;52.402;4.920;2023-04-03T00:50:54;8.80;94.20
17370;DHT22;8802;52.402;4.920;2023-04-03T00:53:24;8.80;94.30
17370;DHT22;8802;52.402;4.920;2023-04-03T00:55:54;8.80;94.40
17370;DHT22;8802;52.402;4.920;2023-04-03T00:58:24;8.80;94.50
17370;DHT22;8802;52.402;4.920;2023-04-03T01:00:57;8.80;94.50
17370;DHT22;8802;52.402;4.920;2023-04-03T01:03:24;8.80;94.80
17370;DHT22;8802;52.402;4.920;2023-04-03T01:05:51;8.80;94.60
17370;DHT22;8802;52.402;4.920;2023-04-03T01:08:18;8.80;94.60
17370;DHT22;8802;52.402;4.920;2023-04-03T01:10:45;8.70;94.70
17370;DHT22;8802;52.402;4.920;2023-04-03T01:13:25;8.70;94.60
17370;DHT22;8802;52.402;4.920;2023-04-03T01:15:52;8.70;94.50
17370;DHT22;8802;52.402;4.920;2023-04-03T01:18:21;8.70;94.70
17370;DHT22;8802;52.402;4.920;2023-04-03T01:21:14;8.70;94.70
17370;DHT22;8802;52.402;4.920;2023-04-03T01:23:59;8.70;94.70
17370;DHT22;8802;52.402;4.920;2023-04-03T01:26:32;8.70;94.70
17370;DHT22;8802;52.402;4.920;2023-04-03T01:28:59;8.70;94.80
17370;DHT22;8802;52.402;4.920;2023-04-03T01:31:29;8.70;95.00
17370;DHT22;8802;52.402;4.920;2023-04-03T01:33:59;8.60;95.00
17370;DHT22;8802;52.402;4.920;2023-04-03T01:36:28;8.60;95.10
17370;DHT22;8802;52.402;4.920;2023-04-03T01:38:56;8.60;95.00
17370;DHT22;8802;52.402;4.920;2023-04-03T01:41:23;8.60;95.20
17370;DHT22;8802;52.402;4.920;2023-04-03T01:43:51;8.60;95.10
17370;DHT22;8802;52.402;4.920;2023-04-03T01:46:18;8.60;95.20
17370;DHT22;8802;52.402;4.920;2023-04-03T01:48:45;8.60;95.10
17370;DHT22;8802;52.402;4.920;2023-04-03T01:51:14;8.50;95.20
17370;DHT22;8802;52.402;4.920;2023-04-03T01:53:41;8.50;95.10
17370;DHT22;8802;52.402;4.920;2023-04-03T01:56:08;8.50;95.00
17370;DHT22;8802;52.402;4.920;2023-04-03T01:58:35;8.50;95.10
17370;DHT22;8802;52.402;4.920;2023-04-03T02:01:02;8.50;95.10
17370;DHT22;8802;52.402;4.920;2023-04-03T02:03:29;8.50;95.20
17370;DHT22;8802;52.402;4.920;2023-04-03T02:05:56;8.40;95.20
17370;DHT22;8802;52.402;4.920;2023-04-03T02:08:24;8.40;95.40
17370;DHT22;8802;52.402;4.920;2023-04-03T02:10:51;8.30;95.40
17370;DHT22;8802;52.402;4.920;2023-04-03T02:13:19;8.30;95.60
17370;DHT22;8802;52.402;4.920;2023-04-03T02:15:46;8.30;95.70
17370;DHT22;8802;52.402;4.920;2023-04-03T02:18:13;8.40;95.80
17370;DHT22;8802;52.402;4.920;2023-04-03T02:20:40;8.30;95.60
17370;DHT22;8802;52.402;4.920;2023-04-03T02:23:07;8.30;95.50
17370;DHT22;8802;52.402;4.920;2023-04-03T02:25:35;8.30;95.60
17370;DHT22;8802;52.402;4.920;2023-04-03T02:28:02;8.30;95.60
17370;DHT22;8802;52.402;4.920;2023-04-03T02:30:29;8.30;95.50
17370;DHT22;8802;52.402;4.920;2023-04-03T02:32:56;8.20;95.50
17370;DHT22;8802;52.402;4.920;2023-04-03T02:35:23;8.20;95.60
17370;DHT22;8802;52.402;4.920;2023-04-03T02:37:49;8.20;95.70
17370;DHT22;8802;52.402;4.920;2023-04-03T02:40:16;8.20;95.70
17370;DHT22;8802;52.402;4.920;2023-04-03T02:42:45;8.20;95.80
17370;DHT22;8802;52.402;4.920;2023-04-03T02:45:11;8.10;95.70
17370;DHT22;8802;52.402;4.920;2023-04-03T02:47:38;8.10;95.70
17370;DHT22;8802;52.402;4.920;2023-04-03T02:50:05;8.10;95.70
17370;DHT22;8802;52.402;4.920;2023-04-03T02:52:32;8.10;95.70
17370;DHT22;8802;52.402;4.920;2023-04-03T02:54:59;8.00;95.80
17370;DHT22;8802;52.402;4.920;2023-04-03T02:57:26;8.00;95.80
17370;DHT22;8802;52.402;4.920;2023-04-03T02:59:54;8.00;96.40
17370;DHT22;8802;52.402;4.920;2023-04-03T03:02:21;7.90;96.00
17370;DHT22;8802;52.402;4.920;2023-04-03T03:04:48;7.90;96.00
17370;DHT22;8802;52.402;4.920;2023-04-03T03:07:15;7.90;96.10
17370;DHT22;8802;52.402;4.920;2023-04-03T03:09:42;7.90;96.10
17370;DHT22;8802;52.402;4.920;2023-04-03T03:12:08;7.90;96.10
17370;DHT22;8802;52.402;4.920;2023-04-03T03:14:35;7.90;96.10
17370;DHT22;8802;52.402;4.920;2023-04-03T03:17:03;7.80;96.10
17370;DHT22;8802;52.402;4.920;2023-04-03T03:19:30;7.80;96.20
17370;DHT22;8802;52.402;4.920;2023-04-03T03:21:57;7.80;96.30
17370;DHT22;8802;52.402;4.920;2023-04-03T03:24:24;7.70;96.30
17370;DHT22;8802;52.402;4.920;2023-04-03T03:26:51;7.70;96.50
17370;DHT22;8802;52.402;4.920;2023-04-03T03:29:18;7.70;97.00
17370;DHT22;8802;52.402;4.920;2023-04-03T03:31:45;7.70;96.60
17370;DHT22;8802;52.402;4.920;2023-04-03T03:34:13;7.70;96.70
17370;DHT22;8802;52.402;4.920;2023-04-03T03:36:40;7.70;96.70
17370;DHT22;8802;52.402;4.920;2023-04-03T03:39:07;7.70;96.70
17370;DHT22;8802;52.402;4.920;2023-04-03T03:41:34;7.70;96.60
17370;DHT22;8802;52.402;4.920;2023-04-03T03:44:01;7.70;96.70
17370;DHT22;8802;52.402;4.920;2023-04-03T03:46:28;7.60;96.70
17370;DHT22;8802;52.402;4.920;2023-04-03T03:48:55;7.60;96.70
17370;DHT22;8802;52.402;4.920;2023-04-03T03:51:23;7.60;96.70
17370;DHT22;8802;52.402;4.920;2023-04-03T03:53:50;7.60;96.60
17370;DHT22;8802;52.402;4.920;2023-04-03T03:56:17;7.60;96.80
17370;DHT22;8802;52.402;4.920;2023-04-03T03:58:44;7.50;96.80
17370;DHT22;8802;52.402;4.920;2023-04-03T04:01:11;7.50;96.80
17370;DHT22;8802;52.402;4.920;2023-04-03T04:03:37;7.50;96.80
17370;DHT22;8802;52.402;4.920;2023-04-03T04:06:05;7.50;96.90
17370;DHT22;8802;52.402;4.920;2023-04-03T04:08:33;7.40;96.90
17370;DHT22;8802;52.402;4.920;2023-04-03T04:11:00;7.40;97.10
17370;DHT22;8802;52.402;4.920;2023-04-03T04:13:27;7.40;97.20
17370;DHT22;8802;52.402;4.920;2023-04-03T04:15:54;7.40;97.20
17370;DHT22;8802;52.402;4.920;2023-04-03T04:18:21;7.40;97.30
17370;DHT22;8802;52.402;4.920;2023-04-03T04:20:48;7.30;97.20
17370;DHT22;8802;52.402;4.920;2023-04-03T04:23:15;7.30;97.20
17370;DHT22;8802;52.402;4.920;2023-04-03T04:25:45;7.30;97.30
17370;DHT22;8802;52.402;4.920;2023-04-03T04:28:12;7.30;97.50
17370;DHT22;8802;52.402;4.920;2023-04-03T04:30:39;7.30;97.50
17370;DHT22;8802;52.402;4.920;2023-04-03T04:33:06;7.30;97.60
17370;DHT22;8802;52.402;4.920;2023-04-03T04:35:33;7.20;97.60
17370;DHT22;8802;52.402;4.920;2023-04-03T04:38:00;7.30;97.60
17370;DHT22;8802;52.402;4.920;2023-04-03T04:40:28;7.30;97.70
17370;DHT22;8802;52.402;4.920;2023-04-03T04:42:56;7.30;97.80
17370;DHT22;8802;52.402;4.920;2023-04-03T04:45:23;7.20;97.90
17370;DHT22;8802;52.402;4.920;2023-04-03T04:47:50;7.30;97.80
17370;DHT22;8802;52.402;4.920;2023-04-03T04:50:18;7.30;97.80
17370;DHT22;8802;52.402;4.920;2023-04-03T04:52:45;7.30;97.80
17370;DHT22;8802;52.402;4.920;2023-04-03T04:55:12;7.30;97.80
17370;DHT22;8802;52.402;4.920;2023-04-03T04:57:39;7.40;97.90
17370;DHT22;8802;52.402;4.920;2023-04-03T05:00:08;7.30;97.90
17370;DHT22;8802;52.402;4.920;2023-04-03T05:02:35;7.30;97.80
17370;DHT22;8802;52.402;4.920;2023-04-03T05:05:02;7.30;97.70
17370;DHT22;8802;52.402;4.920;2023-04-03T05:07:29;7.30;97.70
17370;DHT22;8802;52.402;4.920;2023-04-03T05:09:56;7.30;97.70
17370;DHT22;8802;52.402;4.920;2023-04-03T05:12:23;7.30;97.70
17370;DHT22;8802;52.402;4.920;2023-04-03T05:14:50;7.30;97.80
17370;DHT22;8802;52.402;4.920;2023-04-03T05:17:18;7.30;97.70
17370;DHT22;8802;52.402;4.920;2023-04-03T05:19:45;7.30;97.90
17370;DHT22;8802;52.402;4.920;2023-04-03T05:22:12;7.30;97.80
17370;DHT22;8802;52.402;4.920;2023-04-03T05:24:39;7.30;97.80
17370;DHT22;8802;52.402;4.920;2023-04-03T05:27:06;7.30;97.80
17370;DHT22;8802;52.402;4.920;2023-04-03T05:29:33;7.30;97.90
17370;DHT22;8802;52.402;4.920;2023-04-03T05:32:00;7.30;97.80
17370;DHT22;8802;52.402;4.920;2023-04-03T05:34:28;7.30;97.90
17370;DHT22;8802;52.402;4.920;2023-04-03T05:36:55;7.30;97.90
17370;DHT22;8802;52.402;4.920;2023-04-03T05:39:22;7.30;97.80
17370;DHT22;8802;52.402;4.920;2023-04-03T05:41:49;7.30;97.90
17370;DHT22;8802;52.402;4.920;2023-04-03T05:44:16;7.30;98.00
17370;DHT22;8802;52.402;4.920;2023-04-03T05:46:43;7.30;98.00
17370;DHT22;8802;52.402;4.920;2023-04-03T05:49:10;7.30;97.90
17370;DHT22;8802;52.402;4.920;2023-04-03T05:51:39;7.30;97.90
17370;DHT22;8802;52.402;4.920;2023-04-03T05:54:11;7.30;98.00
17370;DHT22;8802;52.402;4.920;2023-04-03T05:56:39;7.30;98.00
17370;DHT22;8802;52.402;4.920;2023-04-03T05:59:06;7.30;98.00
17370;DHT22;8802;52.402;4.920;2023-04-03T06:01:33;7.30;97.70
17370;DHT22;8802;52.402;4.920;2023-04-03T06:04:00;7.30;97.70
17370;DHT22;8802;52.402;4.920;2023-04-03T06:06:45;7.40;97.60
17370;DHT22;8802;52.402;4.920;2023-04-03T06:09:13;7.30;97.50
17370;DHT22;8802;52.402;4.920;2023-04-03T06:11:40;7.30;97.50
17370;DHT22;8802;52.402;4.920;2023-04-03T06:14:07;7.30;97.60
17370;DHT22;8802;52.402;4.920;2023-04-03T06:16:34;7.30;97.70
17370;DHT22;8802;52.402;4.920;2023-04-03T06:19:01;7.30;97.80
17370;DHT22;8802;52.402;4.920;2023-04-03T06:21:29;7.30;97.70
17370;DHT22;8802;52.402;4.920;2023-04-03T06:23:58;7.30;97.50
17370;DHT22;8802;52.402;4.920;2023-04-03T06:26:24;7.30;97.50
17370;DHT22;8802;52.402;4.920;2023-04-03T06:28:51;7.30;97.40
17370;DHT22;8802;52.402;4.920;2023-04-03T06:31:18;7.40;97.30
17370;DHT22;8802;52.402;4.920;2023-04-03T06:33:45;7.40;97.40
17370;DHT22;8802;52.402;4.920;2023-04-03T06:36:12;7.40;97.30
17370;DHT22;8802;52.402;4.920;2023-04-03T06:38:39;7.40;97.30
17370;DHT22;8802;52.402;4.920;2023-04-03T06:41:08;7.40;97.40
17370;DHT22;8802;52.402;4.920;2023-04-03T06:43:34;7.50;97.60
17370;DHT22;8802;52.402;4.920;2023-04-03T06:46:01;7.50;97.70
17370;DHT22;8802;52.402;4.920;2023-04-03T06:48:29;7.60;98.00
17370;DHT22;8802;52.402;4.920;2023-04-03T06:50:56;7.70;97.70
17370;DHT22;8802;52.402;4.920;2023-04-03T06:53:23;7.70;97.60
17370;DHT22;8802;52.402;4.920;2023-04-03T06:55:50;7.80;97.60
17370;DHT22;8802;52.402;4.920;2023-04-03T06:58:18;7.80;97.50
17370;DHT22;8802;52.402;4.920;2023-04-03T07:00:45;7.90;97.50
17370;DHT22;8802;52.402;4.920;2023-04-03T07:03:12;8.00;97.50
17370;DHT22;8802;52.402;4.920;2023-04-03T07:05:39;8.10;97.60
17370;DHT22;8802;52.402;4.920;2023-04-03T07:08:08;8.10;97.40
17370;DHT22;8802;52.402;4.920;2023-04-03T07:10:35;8.30;97.30
17370;DHT22;8802;52.402;4.920;2023-04-03T07:13:01;8.30;97.00
17370;DHT22;8802;52.402;4.920;2023-04-03T07:15:30;8.50;96.90
17370;DHT22;8802;52.402;4.920;2023-04-03T07:17:57;8.50;96.70
17370;DHT22;8802;52.402;4.920;2023-04-03T07:20:23;8.60;96.80
17370;DHT22;8802;52.402;4.920;2023-04-03T07:22:50;8.70;96.80
17370;DHT22;8802;52.402;4.920;2023-04-03T07:25:17;8.80;96.90
17370;DHT22;8802;52.402;4.920;2023-04-03T07:27:44;8.90;96.90
17370;DHT22;8802;52.402;4.920;2023-04-03T07:30:12;9.00;96.60
17370;DHT22;8802;52.402;4.920;2023-04-03T07:32:41;9.10;96.30
17370;DHT22;8802;52.402;4.920;2023-04-03T07:35:08;9.30;96.40
17370;DHT22;8802;52.402;4.920;2023-04-03T07:37:35;9.40;96.20
17370;DHT22;8802;52.402;4.920;2023-04-03T07:40:03;9.50;96.20
17370;DHT22;8802;52.402;4.920;2023-04-03T07:42:30;9.60;96.30
17370;DHT22;8802;52.402;4.920;2023-04-03T07:44:57;9.70;96.00
17370;DHT22;8802;52.402;4.920;2023-04-03T07:47:24;9.80;95.80
17370;DHT22;8802;52.402;4.920;2023-04-03T07:49:53;10.00;95.80
17370;DHT22;8802;52.402;4.920;2023-04-03T07:52:20;10.10;95.60
17370;DHT22;8802;52.402;4.920;2023-04-03T07:54:46;10.20;96.00
17370;DHT22;8802;52.402;4.920;2023-04-03T07:57:13;10.30;95.40
17370;DHT22;8802;52.402;4.920;2023-04-03T07:59:40;10.40;95.30
17370;DHT22;8802;52.402;4.920;2023-04-03T08:02:09;10.50;95.00
17370;DHT22;8802;52.402;4.920;2023-04-03T08:04:36;10.70;94.90
17370;DHT22;8802;52.402;4.920;2023-04-03T08:07:04;10.80;94.80
17370;DHT22;8802;52.402;4.920;2023-04-03T08:09:31;10.90;94.70
17370;DHT22;8802;52.402;4.920;2023-04-03T08:11:58;11.10;94.70
17370;DHT22;8802;52.402;4.920;2023-04-03T08:14:25;11.20;94.80
17370;DHT22;8802;52.402;4.920;2023-04-03T08:16:52;11.30;94.60
17370;DHT22;8802;52.402;4.920;2023-04-03T08:19:19;11.50;94.20
17370;DHT22;8802;52.402;4.920;2023-04-03T08:21:45;11.60;93.90
17370;DHT22;8802;52.402;4.920;2023-04-03T08:24:14;11.80;93.50
17370;DHT22;8802;52.402;4.920;2023-04-03T08:26:40;11.90;92.90
17370;DHT22;8802;52.402;4.920;2023-04-03T08:29:07;12.00;93.00
17370;DHT22;8802;52.402;4.920;2023-04-03T08:31:34;12.10;92.80
17370;DHT22;8802;52.402;4.920;2023-04-03T08:34:02;12.20;92.50
17370;DHT22;8802;52.402;4.920;2023-04-03T08:36:29;12.20;92.30
17370;DHT22;8802;52.402;4.920;2023-04-03T08:38:56;12.30;92.10
17370;DHT22;8802;52.402;4.920;2023-04-03T08:41:31;12.40;92.10
17370;DHT22;8802;52.402;4.920;2023-04-03T08:44:07;12.50;91.80
17370;DHT22;8802;52.402;4.920;2023-04-03T08:46:47;12.50;91.20
17370;DHT22;8802;52.402;4.920;2023-04-03T08:49:26;12.60;91.70
17370;DHT22;8802;52.402;4.920;2023-04-03T08:51:55;12.70;91.60
17370;DHT22;8802;52.402;4.920;2023-04-03T08:54:28;12.70;91.60
17370;DHT22;8802;52.402;4.920;2023-04-03T08:56:58;12.80;91.40
17370;DHT22;8802;52.402;4.920;2023-04-03T08:59:29;12.80;90.90
17370;DHT22;8802;52.402;4.920;2023-04-03T09:01:58;12.90;91.10
17370;DHT22;8802;52.402;4.920;2023-04-03T09:04:31;12.90;90.30
17370;DHT22;8802;52.402;4.920;2023-04-03T09:07:07;12.90;90.00
17370;DHT22;8802;52.402;4.920;2023-04-03T09:09:37;13.00;90.20
17370;DHT22;8802;52.402;4.920;2023-04-03T09:12:15;13.00;89.70
17370;DHT22;8802;52.402;4.920;2023-04-03T09:14:49;13.10;88.60
17370;DHT22;8802;52.402;4.920;2023-04-03T09:17:29;13.20;88.60
17370;DHT22;8802;52.402;4.920;2023-04-03T09:20:03;13.20;87.90
17370;DHT22;8802;52.402;4.920;2023-04-03T09:22:33;13.20;88.20
17370;DHT22;8802;52.402;4.920;2023-04-03T09:25:10;13.30;88.40
17370;DHT22;8802;52.402;4.920;2023-04-03T09:27:39;13.30;88.40
17370;DHT22;8802;52.402;4.920;2023-04-03T09:30:13;13.40;87.80
17370;DHT22;8802;52.402;4.920;2023-04-03T09:32:41;13.40;87.30
17370;DHT22;8802;52.402;4.920;2023-04-03T09:35:18;13.40;88.40
17370;DHT22;8802;52.402;4.920;2023-04-03T09:37:47;13.50;87.60
17370;DHT22;8802;52.402;4.920;2023-04-03T09:40:33;13.50;87.60
17370;DHT22;8802;52.402;4.920;2023-04-03T09:43:23;13.50;84.70
17370;DHT22;8802;52.402;4.920;2023-04-03T09:45:52;13.60;84.30
17370;DHT22;8802;52.402;4.920;2023-04-03T09:48:21;13.60;82.10
17370;DHT22;8802;52.402;4.920;2023-04-03T09:50:57;13.60;82.10
17370;DHT22;8802;52.402;4.920;2023-04-03T09:53:31;13.60;82.40
17370;DHT22;8802;52.402;4.920;2023-04-03T09:56:01;13.60;83.10
17370;DHT22;8802;52.402;4.920;2023-04-03T09:58:32;13.70;82.20
17370;DHT22;8802;52.402;4.920;2023-04-03T10:01:01;13.70;81.00
17370;DHT22;8802;52.402;4.920;2023-04-03T10:03:31;13.80;81.40
17370;DHT22;8802;52.402;4.920;2023-04-03T10:05:59;13.90;79.30
17370;DHT22;8802;52.402;4.920;2023-04-03T10:08:29;13.90;80.00
17370;DHT22;8802;52.402;4.920;2023-04-03T10:11:16;14.00;78.20
17370;DHT22;8802;52.402;4.920;2023-04-03T10:13:53;14.10;77.40
17370;DHT22;8802;52.402;4.920;2023-04-03T10:16:25;14.10;78.00
17370;DHT22;8802;52.402;4.920;2023-04-03T10:19:01;14.20;78.30
17370;DHT22;8802;52.402;4.920;2023-04-03T10:21:35;14.30;78.00
17370;DHT22;8802;52.402;4.920;2023-04-03T10:24:10;14.30;76.50
17370;DHT22;8802;52.402;4.920;2023-04-03T10:26:44;14.40;77.40
17370;DHT22;8802;52.402;4.920;2023-04-03T10:29:21;14.40;76.20
17370;DHT22;8802;52.402;4.920;2023-04-03T10:31:59;14.50;75.20
17370;DHT22;8802;52.402;4.920;2023-04-03T10:34:31;14.50;74.20
17370;DHT22;8802;52.402;4.920;2023-04-03T10:37:06;14.60;73.30
17370;DHT22;8802;52.402;4.920;2023-04-03T10:39:43;14.60;74.60
17370;DHT22;8802;52.402;4.920;2023-04-03T10:42:17;14.70;73.10
17370;DHT22;8802;52.402;4.920;2023-04-03T10:45:08;14.70;72.20
17370;DHT22;8802;52.402;4.920;2023-04-03T10:47:41;14.70;72.40
17370;DHT22;8802;52.402;4.920;2023-04-03T10:50:29;14.80;71.10
17370;DHT22;8802;52.402;4.920;2023-04-03T10:53:01;14.80;70.60
17370;DHT22;8802;52.402;4.920;2023-04-03T10:55:35;14.90;69.50
17370;DHT22;8802;52.402;4.920;2023-04-03T10:58:05;14.90;69.10
17370;DHT22;8802;52.402;4.920;2023-04-03T11:00:39;14.90;68.90
17370;DHT22;8802;52.402;4.920;2023-04-03T11:03:11;14.90;68.30
17370;DHT22;8802;52.402;4.920;2023-04-03T11:05:42;14.90;67.00
17370;DHT22;8802;52.402;4.920;2023-04-03T11:08:19;15.00;68.00
17370;DHT22;8802;52.402;4.920;2023-04-03T11:10:49;15.00;67.50
17370;DHT22;8802;52.402;4.920;2023-04-03T11:13:20;15.10;67.50
17370;DHT22;8802;52.402;4.920;2023-04-03T11:15:51;15.10;67.40
17370;DHT22;8802;52.402;4.920;2023-04-03T11:18:23;15.20;67.60
17370;DHT22;8802;52.402;4.920;2023-04-03T11:20:58;15.30;66.90
17370;DHT22;8802;52.402;4.920;2023-04-03T11:23:31;15.30;67.60
17370;DHT22;8802;52.402;4.920;2023-04-03T11:26:07;15.30;66.60
17370;DHT22;8802;52.402;4.920;2023-04-03T11:28:36;15.40;66.80
17370;DHT22;8802;52.402;4.920;2023-04-03T11:31:11;15.40;66.40
17370;DHT22;8802;52.402;4.920;2023-04-03T11:33:45;15.50;66.40
17370;DHT22;8802;52.402;4.920;2023-04-03T11:36:21;15.50;65.60
17370;DHT22;8802;52.402;4.920;2023-04-03T11:38:51;15.60;64.00
17370;DHT22;8802;52.402;4.920;2023-04-03T11:41:26;15.70;64.70
17370;DHT22;8802;52.402;4.920;2023-04-03T11:43:58;15.70;64.30
17370;DHT22;8802;52.402;4.920;2023-04-03T11:46:49;15.70;64.80
17370;DHT22;8802;52.402;4.920;2023-04-03T11:49:50;15.80;64.10
17370;DHT22;8802;52.402;4.920;2023-04-03T11:58:29;15.90;62.70
17370;DHT22;8802;52.402;4.920;2023-04-03T12:01:07;16.00;64.80
17370;DHT22;8802;52.402;4.920;2023-04-03T12:04:10;16.00;62.30
17370;DHT22;8802;52.402;4.920;2023-04-03T12:10:01;16.10;62.50
17370;DHT22;8802;52.402;4.920;2023-04-03T12:12:31;16.10;62.80
17370;DHT22;8802;52.402;4.920;2023-04-03T12:15:18;16.20;62.70
17370;DHT22;8802;52.402;4.920;2023-04-03T12:17:46;16.20;63.60
17370;DHT22;8802;52.402;4.920;2023-04-03T12:20:53;16.20;63.50
17370;DHT22;8802;52.402;4.920;2023-04-03T12:23:25;16.20;62.00
17370;DHT22;8802;52.402;4.920;2023-04-03T12:26:00;16.30;62.80
17370;DHT22;8802;52.402;4.920;2023-04-03T12:28:28;16.30;61.70
17370;DHT22;8802;52.402;4.920;2023-04-03T12:30:56;16.30;63.00
17370;DHT22;8802;52.402;4.920;2023-04-03T12:33:31;16.30;62.00
17370;DHT22;8802;52.402;4.920;2023-04-03T12:36:08;16.30;62.80
17370;DHT22;8802;52.402;4.920;2023-04-03T12:38:58;16.30;60.70
17370;DHT22;8802;52.402;4.920;2023-04-03T12:41:33;16.30;61.50
17370;DHT22;8802;52.402;4.920;2023-04-03T12:44:18;16.30;60.90
17370;DHT22;8802;52.402;4.920;2023-04-03T12:46:47;16.30;59.80
17370;DHT22;8802;52.402;4.920;2023-04-03T12:49:37;16.30;59.40
17370;DHT22;8802;52.402;4.920;2023-04-03T12:52:16;16.20;58.70
17370;DHT22;8802;52.402;4.920;2023-04-03T12:54:46;16.30;59.10
17370;DHT22;8802;52.402;4.920;2023-04-03T12:57:22;16.20;60.00
17370;DHT22;8802;52.402;4.920;2023-04-03T12:59:50;16.20;59.90
17370;DHT22;8802;52.402;4.920;2023-04-03T13:02:23;16.10;61.70
17370;DHT22;8802;52.402;4.920;2023-04-03T13:04:53;16.10;60.00
17370;DHT22;8802;52.402;4.920;2023-04-03T13:07:28;16.00;61.30
17370;DHT22;8802;52.402;4.920;2023-04-03T13:10:09;16.00;59.30
17370;DHT22;8802;52.402;4.920;2023-04-03T13:12:46;16.00;59.80
17370;DHT22;8802;52.402;4.920;2023-04-03T13:15:17;15.90;59.60
17370;DHT22;8802;52.402;4.920;2023-04-03T13:17:44;15.90;59.80
17370;DHT22;8802;52.402;4.920;2023-04-03T13:20:17;15.80;61.50
17370;DHT22;8802;52.402;4.920;2023-04-03T13:22:51;15.70;60.50
17370;DHT22;8802;52.402;4.920;2023-04-03T13:25:20;15.70;60.20
17370;DHT22;8802;52.402;4.920;2023-04-03T13:27:47;15.60;61.50
17370;DHT22;8802;52.402;4.920;2023-04-03T13:30:25;15.60;59.80
17370;DHT22;8802;52.402;4.920;2023-04-03T13:32:54;15.50;60.40
17370;DHT22;8802;52.402;4.920;2023-04-03T13:35:35;15.40;59.40
17370;DHT22;8802;52.402;4.920;2023-04-03T13:38:19;15.30;60.00
17370;DHT22;8802;52.402;4.920;2023-04-03T13:40:48;15.20;60.50
17370;DHT22;8802;52.402;4.920;2023-04-03T13:43:19;15.10;60.50
17370;DHT22;8802;52.402;4.920;2023-04-03T13:45:56;15.10;60.60
17370;DHT22;8802;52.402;4.920;2023-04-03T13:48:23;15.00;61.30
17370;DHT22;8802;52.402;4.920;2023-04-03T13:50:54;14.90;61.30
17370;DHT22;8802;52.402;4.920;2023-04-03T13:53:23;14.80;61.50
17370;DHT22;8802;52.402;4.920;2023-04-03T13:56:06;14.80;61.80
17370;DHT22;8802;52.402;4.920;2023-04-03T13:58:34;14.70;60.50
17370;DHT22;8802;52.402;4.920;2023-04-03T14:01:08;14.60;62.30
17370;DHT22;8802;52.402;4.920;2023-04-03T14:03:42;14.50;61.70
17370;DHT22;8802;52.402;4.920;2023-04-03T14:06:12;14.50;62.10
17370;DHT22;8802;52.402;4.920;2023-04-03T14:08:41;14.40;61.90
17370;DHT22;8802;52.402;4.920;2023-04-03T14:11:12;14.40;62.20
17370;DHT22;8802;52.402;4.920;2023-04-03T14:13:40;14.30;62.30
17370;DHT22;8802;52.402;4.920;2023-04-03T14:16:07;14.30;62.30
17370;DHT22;8802;52.402;4.920;2023-04-03T14:18:34;14.20;63.20
17370;DHT22;8802;52.402;4.920;2023-04-03T14:21:02;14.20;62.40
17370;DHT22;8802;52.402;4.920;2023-04-03T14:23:29;14.10;62.50
17370;DHT22;8802;52.402;4.920;2023-04-03T14:25:58;14.00;62.70
17370;DHT22;8802;52.402;4.920;2023-04-03T14:28:25;14.00;62.30
17370;DHT22;8802;52.402;4.920;2023-04-03T14:30:52;13.90;62.10
17370;DHT22;8802;52.402;4.920;2023-04-03T14:33:21;13.90;62.30
17370;DHT22;8802;52.402;4.920;2023-04-03T14:35:48;13.80;61.60
17370;DHT22;8802;52.402;4.920;2023-04-03T14:38:23;13.80;61.70
17370;DHT22;8802;52.402;4.920;2023-04-03T14:40:51;13.70;62.10
17370;DHT22;8802;52.402;4.920;2023-04-03T14:43:20;13.70;63.30
17370;DHT22;8802;52.402;4.920;2023-04-03T14:45:48;13.60;63.00
17370;DHT22;8802;52.402;4.920;2023-04-03T14:48:18;13.60;63.00
17370;DHT22;8802;52.402;4.920;2023-04-03T14:50:46;13.50;63.80
17370;DHT22;8802;52.402;4.920;2023-04-03T14:53:14;13.50;63.60
17370;DHT22;8802;52.402;4.920;2023-04-03T14:55:44;13.50;63.80
17370;DHT22;8802;52.402;4.920;2023-04-03T14:58:15;13.50;63.80
17370;DHT22;8802;52.402;4.920;2023-04-03T15:00:44;13.40;63.10
17370;DHT22;8802;52.402;4.920;2023-04-03T15:03:13;13.40;63.50
17370;DHT22;8802;52.402;4.920;2023-04-03T15:05:41;13.40;63.70
17370;DHT22;8802;52.402;4.920;2023-04-03T15:08:17;13.40;63.90
17370;DHT22;8802;52.402;4.920;2023-04-03T15:10:44;13.30;64.10
17370;DHT22;8802;52.402;4.920;2023-04-03T15:13:12;13.30;65.20
17370;DHT22;8802;52.402;4.920;2023-04-03T15:15:40;13.30;65.70
17370;DHT22;8802;52.402;4.920;2023-04-03T15:20:39;13.30;64.40
17370;DHT22;8802;52.402;4.920;2023-04-03T15:23:07;13.20;65.60
17370;DHT22;8802;52.402;4.920;2023-04-03T15:25:33;13.20;65.20
17370;DHT22;8802;52.402;4.920;2023-04-03T15:28:00;13.20;65.50
17370;DHT22;8802;52.402;4.920;2023-04-03T15:30:27;13.20;65.70
17370;DHT22;8802;52.402;4.920;2023-04-03T15:32:54;13.20;65.50
17370;DHT22;8802;52.402;4.920;2023-04-03T15:35:23;13.10;65.60
17370;DHT22;8802;52.402;4.920;2023-04-03T15:37:49;13.10;66.40
17370;DHT22;8802;52.402;4.920;2023-04-03T15:40:16;13.10;66.10
17370;DHT22;8802;52.402;4.920;2023-04-03T15:42:44;13.10;66.40
17370;DHT22;8802;52.402;4.920;2023-04-03T15:45:11;13.10;67.40
17370;DHT22;8802;52.402;4.920;2023-04-03T15:47:38;13.10;67.10
17370;DHT22;8802;52.402;4.920;2023-04-03T15:50:06;13.10;67.90
17370;DHT22;8802;52.402;4.920;2023-04-03T15:52:35;13.10;67.80
17370;DHT22;8802;52.402;4.920;2023-04-03T15:55:02;13.00;68.20
17370;DHT22;8802;52.402;4.920;2023-04-03T15:57:29;13.00;67.60
17370;DHT22;8802;52.402;4.920;2023-04-03T15:59:56;13.00;68.70
17370;DHT22;8802;52.402;4.920;2023-04-03T16:02:24;12.90;69.00
17370;DHT22;8802;52.402;4.920;2023-04-03T16:04:53;12.90;69.00
17370;DHT22;8802;52.402;4.920;2023-04-03T16:07:20;12.90;68.40
17370;DHT22;8802;52.402;4.920;2023-04-03T16:09:49;12.90;68.50
17370;DHT22;8802;52.402;4.920;2023-04-03T16:12:15;12.80;68.30
17370;DHT22;8802;52.402;4.920;2023-04-03T16:14:42;12.80;69.50
17370;DHT22;8802;52.402;4.920;2023-04-03T16:17:09;12.80;70.00
17370;DHT22;8802;52.402;4.920;2023-04-03T16:19:36;12.80;69.90
17370;DHT22;8802;52.402;4.920;2023-04-03T16:22:04;12.70;69.90
17370;DHT22;8802;52.402;4.920;2023-04-03T16:24:31;12.70;70.40